Wolke Sonne

Wetter Roßtal

Gehe zu: Ammerndorf

Tageswerte vom Donnerstag, 02.07.2020

Optionen

Tag:
Erweitert:

Alle Werte vom Donnerstag, 02.07.2020

Einen Moment bitte, die Daten werden aufbereitet...

UhrzeitTemperaturFeuchteLuftdruckNiederschlagEvapotranspirationNiederschlag?WindWindböenRegenrateWindrichtungHelligkeitSolarstrahlungUV-IndexSonne?Feinstaub 10µmUhrzeit
Diagramm IconDiagramm IconDiagramm IconDiagramm IconDiagramm IconDiagramm IconDiagramm IconDiagramm IconDiagramm IconDiagramm IconDiagramm IconDiagramm IconDiagramm IconDiagramm IconDiagramm Icon
00:0020,0 °C 85 % 1011,1 hPa 0,0 mm 0,0 mm nein 9,7 km/h 14,5 km/h 0,0 mm/h S 0,000 klux 0,0 W/qm 0,0 nein - 00:00
00:0520,0 °C 85 % 1011,0 hPa 0,0 mm 0,0 mm nein 9,7 km/h 22,5 km/h 0,0 mm/h S 0,000 klux 0,0 W/qm 0,0 nein - 00:05
00:1019,4 °C 86 % 1011,0 hPa 0,0 mm 0,0 mm nein 6,4 km/h 14,5 km/h 0,0 mm/h S 0,000 klux 0,0 W/qm 0,0 nein - 00:10
00:1519,4 °C 86 % 1011,0 hPa 0,0 mm 0,0 mm nein 4,8 km/h 12,9 km/h 0,0 mm/h S 0,000 klux 0,0 W/qm 0,0 nein - 00:15
00:2019,4 °C 87 % 1011,0 hPa 0,0 mm 0,0 mm nein 4,8 km/h 12,9 km/h 0,0 mm/h S 0,000 klux 0,0 W/qm 0,0 nein - 00:20
00:2519,4 °C 87 % 1011,0 hPa 0,0 mm 0,0 mm nein 4,8 km/h 9,7 km/h 0,0 mm/h S 0,000 klux 0,0 W/qm 0,0 nein - 00:25
00:3019,4 °C 87 % 1011,0 hPa 0,0 mm 0,0 mm nein 4,8 km/h 8,0 km/h 0,0 mm/h SO 0,000 klux 0,0 W/qm 0,0 nein - 00:30
00:3518,9 °C 87 % 1011,2 hPa 0,0 mm 0,0 mm nein 4,8 km/h 9,7 km/h 0,0 mm/h SSO 0,000 klux 0,0 W/qm 0,0 nein - 00:35
00:4018,9 °C 87 % 1011,3 hPa 0,0 mm 0,0 mm nein 6,4 km/h 11,3 km/h 0,0 mm/h SSO 0,000 klux 0,0 W/qm 0,0 nein - 00:40
00:4518,9 °C 87 % 1011,2 hPa 0,0 mm 0,0 mm nein 6,4 km/h 11,3 km/h 0,0 mm/h SSO 0,000 klux 0,0 W/qm 0,0 nein - 00:45
00:5018,9 °C 88 % 1011,1 hPa 0,0 mm 0,0 mm nein 6,4 km/h 11,3 km/h 0,0 mm/h SSO 0,000 klux 0,0 W/qm 0,0 nein - 00:50
00:5518,9 °C 88 % 1011,2 hPa 0,0 mm 0,0 mm nein 6,4 km/h 11,3 km/h 0,0 mm/h SSO 0,000 klux 0,0 W/qm 0,0 nein - 00:55
01:0018,9 °C 88 % 1011,3 hPa 0,0 mm 0,0 mm nein 6,4 km/h 14,5 km/h 0,0 mm/h SSO 0,000 klux 0,0 W/qm 0,0 nein - 01:00
01:0518,9 °C 88 % 1011,1 hPa 0,0 mm 0,0 mm nein 6,4 km/h 11,3 km/h 0,0 mm/h SSO 0,000 klux 0,0 W/qm 0,0 nein - 01:05
01:1018,3 °C 89 % 1011,2 hPa 0,0 mm 0,0 mm nein 8,0 km/h 12,9 km/h 0,0 mm/h SO 0,000 klux 0,0 W/qm 0,0 nein - 01:10
01:1518,3 °C 89 % 1011,5 hPa 0,0 mm 0,0 mm nein 9,7 km/h 16,1 km/h 0,0 mm/h SSO 0,000 klux 0,0 W/qm 0,0 nein - 01:15
01:2018,3 °C 90 % 1011,5 hPa 0,0 mm 0,0 mm nein 6,4 km/h 11,3 km/h 0,0 mm/h SSO 0,000 klux 0,0 W/qm 0,0 nein - 01:20
01:2518,3 °C 90 % 1012,0 hPa 0,0 mm 0,0 mm nein 6,4 km/h 14,5 km/h 0,0 mm/h S 0,000 klux 0,0 W/qm 0,0 nein - 01:25
01:3018,3 °C 91 % 1011,9 hPa 0,0 mm 0,0 mm nein 6,4 km/h 20,9 km/h 0,0 mm/h SSW 0,000 klux 0,0 W/qm 0,0 nein - 01:30
01:3518,3 °C 91 % 1011,8 hPa 0,0 mm 0,0 mm nein 3,2 km/h 8,0 km/h 0,0 mm/h W 0,000 klux 0,0 W/qm 0,0 nein - 01:35
01:4018,3 °C 91 % 1011,7 hPa 0,0 mm 0,0 mm nein 3,2 km/h 6,4 km/h 0,0 mm/h SSW 0,000 klux 0,0 W/qm 0,0 nein - 01:40
01:4518,3 °C 92 % 1011,8 hPa 0,0 mm 0,0 mm nein 3,2 km/h 8,0 km/h 0,0 mm/h NW 0,000 klux 0,0 W/qm 0,0 nein - 01:45
01:5018,3 °C 92 % 1011,8 hPa 0,0 mm 0,0 mm nein 3,2 km/h 6,4 km/h 0,0 mm/h NW 0,000 klux 0,0 W/qm 0,0 nein - 01:50
01:5518,3 °C 92 % 1011,8 hPa 0,0 mm 0,0 mm nein 3,2 km/h 6,4 km/h 0,0 mm/h S 0,000 klux 0,0 W/qm 0,0 nein - 01:55
UhrzeitTemperaturFeuchteLuftdruckNiederschlagEvapotranspirationNiederschlag?WindWindböenRegenrateWindrichtungHelligkeitSolarstrahlungUV-IndexSonne?Feinstaub 10µmUhrzeit
02:0018,3 °C 92 % 1011,6 hPa 0,0 mm 0,0 mm nein 1,6 km/h 4,8 km/h 0,0 mm/h S 0,000 klux 0,0 W/qm 0,0 nein - 02:00
02:0518,3 °C 92 % 1011,7 hPa 0,0 mm 0,0 mm nein 0,0 km/h 1,6 km/h 0,0 mm/h S 0,000 klux 0,0 W/qm 0,0 nein - 02:05
02:1018,3 °C 92 % 1011,7 hPa 0,0 mm 0,0 mm nein 1,6 km/h 3,2 km/h 0,0 mm/h S 0,000 klux 0,0 W/qm 0,0 nein - 02:10
02:1518,3 °C 92 % 1011,6 hPa 0,0 mm 0,0 mm nein 1,6 km/h 3,2 km/h 0,0 mm/h S 0,000 klux 0,0 W/qm 0,0 nein - 02:15
02:2018,3 °C 92 % 1011,6 hPa 0,0 mm 0,0 mm nein 1,6 km/h 4,8 km/h 0,0 mm/h S 0,000 klux 0,0 W/qm 0,0 nein - 02:20
02:2518,3 °C 92 % 1011,6 hPa 0,0 mm 0,0 mm nein 1,6 km/h 3,2 km/h 0,0 mm/h S 0,000 klux 0,0 W/qm 0,0 nein - 02:25
02:3018,3 °C 92 % 1011,7 hPa 0,0 mm 0,0 mm nein 0,0 km/h 1,6 km/h 0,0 mm/h S 0,000 klux 0,0 W/qm 0,0 nein - 02:30
02:3518,3 °C 92 % 1011,6 hPa 0,0 mm 0,0 mm nein 0,0 km/h 3,2 km/h 0,0 mm/h S 0,000 klux 0,0 W/qm 0,0 nein - 02:35
02:4018,3 °C 92 % 1011,6 hPa 0,0 mm 0,0 mm nein 1,6 km/h 4,8 km/h 0,0 mm/h S 0,000 klux 0,0 W/qm 0,0 nein - 02:40
02:4518,3 °C 92 % 1011,6 hPa 0,0 mm 0,0 mm nein 3,2 km/h 4,8 km/h 0,0 mm/h S 0,000 klux 0,0 W/qm 0,0 nein - 02:45
02:5018,3 °C 92 % 1011,6 hPa 0,0 mm 0,0 mm nein 4,8 km/h 6,4 km/h 0,0 mm/h SSO 0,000 klux 0,0 W/qm 0,0 nein - 02:50
02:5518,3 °C 93 % 1011,6 hPa 0,0 mm 0,0 mm nein 4,8 km/h 8,0 km/h 0,0 mm/h SSO 0,000 klux 0,0 W/qm 0,0 nein - 02:55
03:0018,3 °C 93 % 1011,5 hPa 0,0 mm 0,0 mm nein 4,8 km/h 8,0 km/h 0,0 mm/h SSO 0,000 klux 0,0 W/qm 0,0 nein - 03:00
03:0518,3 °C 93 % 1011,4 hPa 0,0 mm 0,0 mm nein 6,4 km/h 9,7 km/h 0,0 mm/h SSO 0,000 klux 0,0 W/qm 0,0 nein - 03:05
03:1018,3 °C 93 % 1011,5 hPa 0,0 mm 0,0 mm nein 4,8 km/h 9,7 km/h 0,0 mm/h SSO 0,000 klux 0,0 W/qm 0,0 nein - 03:10
03:1518,3 °C 93 % 1011,5 hPa 0,0 mm 0,0 mm nein 4,8 km/h 9,7 km/h 0,0 mm/h SSO 0,000 klux 0,0 W/qm 0,0 nein - 03:15
03:2018,3 °C 93 % 1011,4 hPa 0,0 mm 0,0 mm nein 6,4 km/h 9,7 km/h 0,0 mm/h SSO 0,000 klux 0,0 W/qm 0,0 nein - 03:20
03:2518,3 °C 93 % 1011,3 hPa 0,0 mm 0,0 mm nein 4,8 km/h 9,7 km/h 0,0 mm/h SSO 0,000 klux 0,0 W/qm 0,0 nein - 03:25
03:3017,8 °C 93 % 1011,4 hPa 0,0 mm 0,0 mm nein 4,8 km/h 9,7 km/h 0,0 mm/h SO 0,000 klux 0,0 W/qm 0,0 nein - 03:30
03:3517,8 °C 93 % 1011,3 hPa 0,0 mm 0,0 mm nein 4,8 km/h 9,7 km/h 0,0 mm/h SSO 0,000 klux 0,0 W/qm 0,0 nein - 03:35
03:4017,8 °C 94 % 1011,3 hPa 0,0 mm 0,0 mm nein 3,2 km/h 6,4 km/h 0,0 mm/h SSO 0,000 klux 0,0 W/qm 0,0 nein - 03:40
03:4517,8 °C 94 % 1011,3 hPa 0,0 mm 0,0 mm nein 1,6 km/h 6,4 km/h 0,0 mm/h SSO 0,000 klux 0,0 W/qm 0,0 nein - 03:45
03:5017,8 °C 94 % 1011,3 hPa 0,0 mm 0,0 mm nein 0,0 km/h 3,2 km/h 0,0 mm/h SSO 0,000 klux 0,0 W/qm 0,0 nein - 03:50
03:5517,8 °C 94 % 1011,3 hPa 0,0 mm 0,0 mm nein 0,0 km/h 1,6 km/h 0,0 mm/h SSO 0,000 klux 0,0 W/qm 0,0 nein - 03:55
UhrzeitTemperaturFeuchteLuftdruckNiederschlagEvapotranspirationNiederschlag?WindWindböenRegenrateWindrichtungHelligkeitSolarstrahlungUV-IndexSonne?Feinstaub 10µmUhrzeit
04:0017,8 °C 94 % 1011,3 hPa 0,0 mm 0,0 mm nein 1,6 km/h 4,8 km/h 0,0 mm/h SSO 0,000 klux 0,0 W/qm 0,0 nein - 04:00
04:0517,8 °C 94 % 1011,3 hPa 0,0 mm 0,0 mm nein 1,6 km/h 3,2 km/h 0,0 mm/h S 0,000 klux 0,0 W/qm 0,0 nein - 04:05
04:1017,8 °C 94 % 1011,3 hPa 0,0 mm 0,0 mm nein 3,2 km/h 6,4 km/h 0,0 mm/h S 0,000 klux 0,0 W/qm 0,0 nein - 04:10
04:1517,8 °C 94 % 1011,3 hPa 0,0 mm 0,0 mm nein 3,2 km/h 6,4 km/h 0,0 mm/h SSO 0,000 klux 0,0 W/qm 0,0 nein - 04:15
04:2017,8 °C 94 % 1011,3 hPa 0,0 mm 0,0 mm nein 4,8 km/h 8,0 km/h 0,0 mm/h SSO 0,000 klux 0,0 W/qm 0,0 nein - 04:20
04:2517,8 °C 94 % 1011,2 hPa 0,0 mm 0,0 mm nein 4,8 km/h 6,4 km/h 0,0 mm/h SSO 0,000 klux 0,0 W/qm 0,0 nein - 04:25
04:3017,8 °C 94 % 1011,3 hPa 0,0 mm 0,0 mm nein 4,8 km/h 8,0 km/h 0,0 mm/h SSO 0,000 klux 0,0 W/qm 0,0 nein - 04:30
04:3517,8 °C 94 % 1011,3 hPa 0,0 mm 0,0 mm nein 1,6 km/h 6,4 km/h 0,0 mm/h S 0,000 klux 0,0 W/qm 0,0 nein - 04:35
04:4017,8 °C 94 % 1011,3 hPa 0,0 mm 0,0 mm nein 0,0 km/h 3,2 km/h 0,0 mm/h S 0,000 klux 0,0 W/qm 0,0 nein - 04:40
04:4517,8 °C 94 % 1011,3 hPa 0,0 mm 0,0 mm nein 0,0 km/h 1,6 km/h 0,0 mm/h S 0,000 klux 0,0 W/qm 0,0 nein - 04:45
04:5017,8 °C 94 % 1011,3 hPa 0,0 mm 0,0 mm nein 0,0 km/h 3,2 km/h 0,0 mm/h S 0,000 klux 0,0 W/qm 0,0 nein - 04:50
04:5517,8 °C 94 % 1011,3 hPa 0,0 mm 0,0 mm nein 1,6 km/h 8,0 km/h 0,0 mm/h S 0,000 klux 0,0 W/qm 0,0 nein - 04:55
05:0017,8 °C 94 % 1011,4 hPa 0,0 mm 0,0 mm nein 6,4 km/h 12,9 km/h 0,0 mm/h SSO 0,000 klux 0,0 W/qm 0,0 nein - 05:00
05:0517,8 °C 94 % 1011,4 hPa 0,0 mm 0,0 mm nein 6,4 km/h 11,3 km/h 0,0 mm/h SSO 0,000 klux 0,0 W/qm 0,0 nein - 05:05
05:1017,8 °C 94 % 1011,4 hPa 0,0 mm 0,0 mm nein 4,8 km/h 9,7 km/h 0,0 mm/h SSO 0,000 klux 0,0 W/qm 0,0 nein - 05:10
05:1517,8 °C 94 % 1011,3 hPa 0,0 mm 0,0 mm nein 4,8 km/h 8,0 km/h 0,0 mm/h SSO 0,000 klux 0,0 W/qm 0,0 nein - 05:15
05:2017,8 °C 94 % 1011,3 hPa 0,0 mm 0,0 mm nein 4,8 km/h 9,7 km/h 0,0 mm/h SSO 0,503 klux 3,0 W/qm 0,0 nein - 05:20
05:2517,8 °C 94 % 1011,4 hPa 0,0 mm 0,0 mm nein 4,8 km/h 12,9 km/h 0,0 mm/h S 1,002 klux 6,0 W/qm 0,0 nein - 05:25
05:3017,2 °C 94 % 1011,3 hPa 0,0 mm 0,0 mm nein 4,8 km/h 12,9 km/h 0,0 mm/h SSW 1,332 klux 8,0 W/qm 0,0 nein - 05:30
05:3517,2 °C 94 % 1011,3 hPa 0,0 mm 0,0 mm nein 4,8 km/h 9,7 km/h 0,0 mm/h SSO 1,825 klux 11,0 W/qm 0,0 nein - 05:35
05:4017,2 °C 94 % 1011,3 hPa 0,0 mm 0,0 mm nein 3,2 km/h 6,4 km/h 0,0 mm/h S 2,315 klux 14,0 W/qm 0,0 nein - 05:40
05:4517,2 °C 94 % 1011,4 hPa 0,0 mm 0,0 mm nein 3,2 km/h 6,4 km/h 0,0 mm/h S 2,636 klux 16,0 W/qm 0,0 nein - 05:45
05:5017,2 °C 94 % 1011,3 hPa 0,0 mm 0,0 mm nein 3,2 km/h 8,0 km/h 0,0 mm/h SSO 3,282 klux 20,0 W/qm 0,0 nein - 05:50
05:5517,2 °C 94 % 1011,4 hPa 0,0 mm 0,0 mm nein 3,2 km/h 6,4 km/h 0,0 mm/h S 3,434 klux 21,0 W/qm 0,0 nein - 05:55
UhrzeitTemperaturFeuchteLuftdruckNiederschlagEvapotranspirationNiederschlag?WindWindböenRegenrateWindrichtungHelligkeitSolarstrahlungUV-IndexSonne?Feinstaub 10µmUhrzeit
06:0017,2 °C 94 % 1011,4 hPa 0,0 mm 0,0 mm nein 4,8 km/h 11,3 km/h 0,0 mm/h SSO 3,584 klux 22,0 W/qm 0,0 nein - 06:00
06:0517,2 °C 94 % 1011,5 hPa 0,0 mm 0,0 mm nein 3,2 km/h 6,4 km/h 0,0 mm/h S 4,544 klux 28,0 W/qm 0,0 nein - 06:05
06:1017,2 °C 95 % 1011,5 hPa 0,0 mm 0,0 mm nein 4,8 km/h 9,7 km/h 0,0 mm/h S 5,335 klux 33,0 W/qm 0,0 nein - 06:10
06:1517,2 °C 95 % 1011,5 hPa 0,0 mm 0,0 mm nein 6,4 km/h 12,9 km/h 0,0 mm/h S 9,178 klux 57,0 W/qm 0,0 ja - 06:15
06:2017,8 °C 95 % 1011,5 hPa 0,0 mm 0,0 mm nein 6,4 km/h 9,7 km/h 0,0 mm/h S 9,463 klux 59,0 W/qm 0,0 nein - 06:20
06:2517,8 °C 95 % 1011,4 hPa 0,0 mm 0,0 mm nein 4,8 km/h 9,7 km/h 0,0 mm/h S 10,383 klux 65,0 W/qm 0,0 nein - 06:25
06:3017,8 °C 96 % 1011,4 hPa 0,0 mm 0,0 mm nein 3,2 km/h 9,7 km/h 0,0 mm/h S 13,364 klux 84,0 W/qm 0,0 ja - 06:30
06:3517,8 °C 96 % 1011,5 hPa 0,0 mm 0,0 mm nein 3,2 km/h 6,4 km/h 0,0 mm/h S 16,003 klux 101,0 W/qm 0,0 ja - 06:35
06:4018,3 °C 96 % 1011,4 hPa 0,0 mm 0,0 mm nein 3,2 km/h 12,9 km/h 0,0 mm/h SSW 11,519 klux 73,0 W/qm 0,0 nein - 06:40
06:4518,3 °C 96 % 1011,4 hPa 0,0 mm 0,0 mm nein 4,8 km/h 8,0 km/h 0,0 mm/h S 13,356 klux 85,0 W/qm 0,0 nein - 06:45
06:5018,3 °C 96 % 1011,4 hPa 0,0 mm 0,0 mm nein 6,4 km/h 16,1 km/h 0,0 mm/h S 24,566 klux 157,0 W/qm 0,0 ja - 06:50
06:5518,3 °C 96 % 1011,4 hPa 0,0 mm 0,0 mm nein 4,8 km/h 12,9 km/h 0,0 mm/h S 13,867 klux 89,0 W/qm 0,0 nein - 06:55
07:0018,3 °C 96 % 1011,4 hPa 0,0 mm 0,1 mm nein 4,8 km/h 8,0 km/h 0,0 mm/h S 19,081 klux 123,0 W/qm 0,0 ja - 07:00
07:0518,9 °C 96 % 1011,3 hPa 0,0 mm 0,0 mm nein 3,2 km/h 9,7 km/h 0,0 mm/h S 26,412 klux 171,0 W/qm 0,0 ja - 07:05
07:1018,9 °C 96 % 1011,3 hPa 0,0 mm 0,0 mm nein 4,8 km/h 8,0 km/h 0,0 mm/h SSO 28,603 klux 186,0 W/qm 0,0 ja - 07:10
07:1518,9 °C 96 % 1011,3 hPa 0,0 mm 0,0 mm nein 6,4 km/h 14,5 km/h 0,0 mm/h S 33,069 klux 216,0 W/qm 0,0 ja - 07:15
07:2018,9 °C 96 % 1011,2 hPa 0,0 mm 0,0 mm nein 6,4 km/h 12,9 km/h 0,0 mm/h SSO 28,349 klux 186,0 W/qm 0,1 ja - 07:20
07:2519,4 °C 95 % 1011,3 hPa 0,0 mm 0,0 mm nein 4,8 km/h 9,7 km/h 0,0 mm/h S 37,932 klux 250,0 W/qm 0,5 ja - 07:25
07:3019,4 °C 95 % 1011,4 hPa 0,0 mm 0,0 mm nein 4,8 km/h 11,3 km/h 0,0 mm/h S 25,223 klux 167,0 W/qm 0,5 ja - 07:30
07:3519,4 °C 93 % 1011,4 hPa 0,0 mm 0,0 mm nein 4,8 km/h 12,9 km/h 0,0 mm/h SSW 12,328 klux 82,0 W/qm 0,5 nein - 07:35
07:4019,4 °C 93 % 1011,5 hPa 0,0 mm 0,0 mm nein 6,4 km/h 12,9 km/h 0,0 mm/h SSW 21,101 klux 141,0 W/qm 0,5 nein - 07:40
07:4519,4 °C 92 % 1011,4 hPa 0,0 mm 0,0 mm nein 3,2 km/h 9,7 km/h 0,0 mm/h SSW 16,534 klux 111,0 W/qm 0,5 nein - 07:45
07:5019,4 °C 92 % 1011,4 hPa 0,0 mm 0,0 mm nein 4,8 km/h 12,9 km/h 0,0 mm/h SSW 44,476 klux 300,0 W/qm 0,8 ja - 07:50
07:5520,0 °C 93 % 1011,2 hPa 0,0 mm 0,0 mm nein 4,8 km/h 12,9 km/h 0,0 mm/h SSW 50,167 klux 340,0 W/qm 0,9 ja - 07:55
UhrzeitTemperaturFeuchteLuftdruckNiederschlagEvapotranspirationNiederschlag?WindWindböenRegenrateWindrichtungHelligkeitSolarstrahlungUV-IndexSonne?Feinstaub 10µmUhrzeit
08:0020,0 °C 92 % 1011,1 hPa 0,0 mm 0,1 mm nein 1,6 km/h 6,4 km/h 0,0 mm/h SSW 52,425 klux 357,0 W/qm 1,0 ja - 08:00
08:0520,6 °C 91 % 1011,0 hPa 0,0 mm 0,0 mm nein 3,2 km/h 11,3 km/h 0,0 mm/h SSO 54,073 klux 370,0 W/qm 1,1 ja - 08:05
08:1020,6 °C 91 % 1011,0 hPa 0,0 mm 0,0 mm nein 3,2 km/h 6,4 km/h 0,0 mm/h W 55,848 klux 384,0 W/qm 1,2 ja - 08:10
08:1520,6 °C 90 % 1011,0 hPa 0,0 mm 0,0 mm nein 3,2 km/h 6,4 km/h 0,0 mm/h W 57,747 klux 399,0 W/qm 1,3 ja - 08:15
08:2021,1 °C 90 % 1010,9 hPa 0,0 mm 0,0 mm nein 4,8 km/h 16,1 km/h 0,0 mm/h W 61,497 klux 427,0 W/qm 1,3 ja - 08:20
08:2521,1 °C 88 % 1011,1 hPa 0,0 mm 0,0 mm nein 6,4 km/h 12,9 km/h 0,0 mm/h W 66,496 klux 464,0 W/qm 1,3 ja - 08:25
08:3021,1 °C 87 % 1011,0 hPa 0,0 mm 0,0 mm nein 4,8 km/h 9,7 km/h 0,0 mm/h WNW 39,785 klux 279,0 W/qm 1,0 ja - 08:30
08:3521,1 °C 86 % 1011,1 hPa 0,0 mm 0,0 mm nein 4,8 km/h 12,9 km/h 0,0 mm/h NW 27,101 klux 191,0 W/qm 0,7 nein - 08:35
08:4021,1 °C 85 % 1011,0 hPa 0,0 mm 0,0 mm nein 3,2 km/h 6,4 km/h 0,0 mm/h NW 22,024 klux 156,0 W/qm 0,4 nein - 08:40
08:4521,1 °C 85 % 1011,2 hPa 0,0 mm 0,0 mm nein 3,2 km/h 6,4 km/h 0,0 mm/h NW 8,990 klux 64,0 W/qm 0,0 nein - 08:45
08:5021,1 °C 83 % 1011,3 hPa 0,0 mm 0,0 mm nein 9,7 km/h 19,3 km/h 0,0 mm/h NW 3,913 klux 28,0 W/qm 0,0 nein - 08:50
08:5520,6 °C 82 % 1011,4 hPa 0,0 mm 0,0 mm nein 9,7 km/h 17,7 km/h 0,0 mm/h NW 12,931 klux 93,0 W/qm 0,2 nein - 08:55
09:0020,6 °C 83 % 1011,5 hPa 0,0 mm 0,2 mm nein 4,8 km/h 12,9 km/h 0,0 mm/h NW 26,698 klux 193,0 W/qm 0,9 nein - 09:00
09:0520,6 °C 83 % 1011,5 hPa 0,0 mm 0,0 mm nein 8,0 km/h 14,5 km/h 0,0 mm/h NW 25,322 klux 184,0 W/qm 0,9 nein - 09:05
09:1020,0 °C 83 % 1011,6 hPa 0,0 mm 0,0 mm nein 8,0 km/h 14,5 km/h 0,0 mm/h NW 24,918 klux 182,0 W/qm 1,0 nein - 09:10
09:1520,0 °C 83 % 1011,6 hPa 0,0 mm 0,0 mm nein 6,4 km/h 12,9 km/h 0,0 mm/h NNW 29,692 klux 218,0 W/qm 1,3 nein - 09:15
09:2020,0 °C 86 % 1011,7 hPa 0,0 mm 0,0 mm nein 4,8 km/h 11,3 km/h 0,0 mm/h NW 46,474 klux 343,0 W/qm 1,6 ja - 09:20
09:2520,0 °C 85 % 1011,6 hPa 0,0 mm 0,0 mm nein 8,0 km/h 17,7 km/h 0,0 mm/h NW 34,505 klux 256,0 W/qm 1,8 nein - 09:25
09:3020,0 °C 86 % 1011,7 hPa 0,0 mm 0,0 mm nein 8,0 km/h 14,5 km/h 0,0 mm/h NW 64,494 klux 481,0 W/qm 2,5 ja - 09:30
09:3520,0 °C 84 % 1011,6 hPa 0,0 mm 0,0 mm nein 6,4 km/h 14,5 km/h 0,0 mm/h NNW 43,215 klux 324,0 W/qm 1,9 nein - 09:35
09:4020,0 °C 82 % 1011,7 hPa 0,0 mm 0,0 mm nein 6,4 km/h 12,9 km/h 0,0 mm/h NNW 37,018 klux 279,0 W/qm 1,9 nein - 09:40
09:4520,6 °C 82 % 1011,5 hPa 0,0 mm 0,0 mm nein 4,8 km/h 9,7 km/h 0,0 mm/h N 58,204 klux 441,0 W/qm 2,5 ja - 09:45
09:5020,6 °C 82 % 1011,7 hPa 0,0 mm 0,0 mm nein 6,4 km/h 12,9 km/h 0,0 mm/h NNW 35,973 klux 274,0 W/qm 1,6 nein - 09:50
09:5520,6 °C 81 % 1011,7 hPa 0,0 mm 0,0 mm nein 6,4 km/h 16,1 km/h 0,0 mm/h NW 17,369 klux 133,0 W/qm 0,9 nein - 09:55
UhrzeitTemperaturFeuchteLuftdruckNiederschlagEvapotranspirationNiederschlag?WindWindböenRegenrateWindrichtungHelligkeitSolarstrahlungUV-IndexSonne?Feinstaub 10µmUhrzeit
10:0020,0 °C 81 % 1011,9 hPa 0,0 mm 0,2 mm nein 8,0 km/h 16,1 km/h 0,0 mm/h NW 20,915 klux 161,0 W/qm 1,0 nein - 10:00
10:0520,0 °C 82 % 1011,9 hPa 0,0 mm 0,0 mm nein 4,8 km/h 12,9 km/h 0,0 mm/h NW 24,165 klux 187,0 W/qm 1,3 nein - 10:05
10:1020,0 °C 80 % 1012,0 hPa 0,0 mm 0,0 mm nein 6,4 km/h 12,9 km/h 0,0 mm/h NNW 14,525 klux 113,0 W/qm 0,8 nein - 10:10
10:1520,0 °C 81 % 1011,9 hPa 0,0 mm 0,0 mm nein 3,2 km/h 9,7 km/h 0,0 mm/h N 17,773 klux 139,0 W/qm 1,0 nein - 10:15
10:2020,0 °C 82 % 1011,9 hPa 0,0 mm 0,0 mm nein 4,8 km/h 9,7 km/h 0,0 mm/h WNW 17,553 klux 138,0 W/qm 1,0 nein - 10:20
10:2520,0 °C 81 % 1011,9 hPa 0,0 mm 0,0 mm nein 9,7 km/h 14,5 km/h 0,0 mm/h NW 17,588 klux 139,0 W/qm 0,9 nein - 10:25
10:3019,4 °C 83 % 1012,1 hPa 0,0 mm 0,0 mm nein 8,0 km/h 16,1 km/h 0,0 mm/h WNW 12,461 klux 99,0 W/qm 0,7 nein - 10:30
10:3519,4 °C 82 % 1012,2 hPa 0,0 mm 0,0 mm nein 8,0 km/h 17,7 km/h 0,0 mm/h NW 9,892 klux 79,0 W/qm 0,6 nein - 10:35
10:4019,4 °C 83 % 1012,2 hPa 0,0 mm 0,0 mm nein 6,4 km/h 14,5 km/h 0,0 mm/h WNW 9,841 klux 79,0 W/qm 0,6 nein - 10:40
10:4519,4 °C 83 % 1012,3 hPa 0,0 mm 0,0 mm nein 6,4 km/h 12,9 km/h 0,0 mm/h WNW 6,444 klux 52,0 W/qm 0,2 nein - 10:45
10:5019,4 °C 82 % 1012,3 hPa 0,0 mm 0,0 mm nein 4,8 km/h 9,7 km/h 0,0 mm/h WNW 8,384 klux 68,0 W/qm 0,4 nein - 10:50
10:5518,9 °C 83 % 1012,5 hPa 0,0 mm 0,0 mm nein 3,2 km/h 11,3 km/h 0,0 mm/h NW 12,022 klux 98,0 W/qm 0,7 nein - 10:55
11:0018,9 °C 84 % 1012,6 hPa 0,0 mm 0,1 mm nein 4,8 km/h 8,0 km/h 0,0 mm/h WNW 13,915 klux 114,0 W/qm 0,9 nein - 11:00
11:0518,9 °C 85 % 1012,6 hPa 0,0 mm 0,0 mm nein 6,4 km/h 12,9 km/h 0,0 mm/h WNW 13,481 klux 111,0 W/qm 0,9 nein - 11:05
11:1018,9 °C 85 % 1012,7 hPa 0,0 mm 0,0 mm nein 3,2 km/h 8,0 km/h 0,0 mm/h WNW 11,240 klux 93,0 W/qm 0,7 nein - 11:10
11:1518,9 °C 85 % 1012,7 hPa 0,0 mm 0,0 mm nein 1,6 km/h 4,8 km/h 0,0 mm/h WNW 13,831 klux 115,0 W/qm 0,9 nein - 11:15
11:2018,9 °C 87 % 1012,7 hPa 0,0 mm 0,0 mm nein 3,2 km/h 6,4 km/h 0,0 mm/h WNW 13,645 klux 114,0 W/qm 0,9 nein - 11:20
11:2518,9 °C 87 % 1012,7 hPa 0,0 mm 0,0 mm nein 3,2 km/h 6,4 km/h 0,0 mm/h WNW 9,173 klux 77,0 W/qm 0,6 nein - 11:25
11:3018,9 °C 87 % 1012,7 hPa 0,0 mm 0,0 mm nein 3,2 km/h 4,8 km/h 0,0 mm/h WNW 9,368 klux 79,0 W/qm 0,6 nein - 11:30
11:3518,9 °C 88 % 1012,7 hPa 0,0 mm 0,0 mm nein 3,2 km/h 6,4 km/h 0,0 mm/h NW 10,625 klux 90,0 W/qm 0,8 nein - 11:35
11:4018,3 °C 88 % 1012,7 hPa 0,0 mm 0,0 mm nein 3,2 km/h 6,4 km/h 0,0 mm/h NW 12,459 klux 106,0 W/qm 0,9 nein - 11:40
11:4518,3 °C 88 % 1012,7 hPa 0,0 mm 0,0 mm nein 1,6 km/h 4,8 km/h 0,0 mm/h NW 12,756 klux 109,0 W/qm 0,9 nein - 11:45
11:5018,3 °C 88 % 1012,7 hPa 0,0 mm 0,0 mm nein 3,2 km/h 6,4 km/h 0,0 mm/h NNW 14,685 klux 126,0 W/qm 1,1 nein - 11:50
11:5518,3 °C 89 % 1012,7 hPa 0,0 mm 0,0 mm nein 3,2 km/h 4,8 km/h 0,0 mm/h NW 12,304 klux 106,0 W/qm 0,9 nein - 11:55
UhrzeitTemperaturFeuchteLuftdruckNiederschlagEvapotranspirationNiederschlag?WindWindböenRegenrateWindrichtungHelligkeitSolarstrahlungUV-IndexSonne?Feinstaub 10µmUhrzeit
12:0018,3 °C 89 % 1012,7 hPa 0,0 mm 0,1 mm nein 3,2 km/h 6,4 km/h 0,0 mm/h NW 13,644 klux 118,0 W/qm 1,0 nein - 12:00
12:0518,3 °C 89 % 1012,7 hPa 0,0 mm 0,0 mm nein 1,6 km/h 4,8 km/h 0,0 mm/h NW 17,049 klux 148,0 W/qm 1,3 nein - 12:05
12:1018,3 °C 89 % 1012,7 hPa 0,0 mm 0,0 mm nein 1,6 km/h 4,8 km/h 0,0 mm/h NW 24,105 klux 210,0 W/qm 1,8 nein - 12:10
12:1518,3 °C 90 % 1012,7 hPa 0,0 mm 0,0 mm nein 1,6 km/h 4,8 km/h 0,0 mm/h NW 23,108 klux 202,0 W/qm 1,7 nein - 12:15
12:2018,3 °C 89 % 1012,7 hPa 0,0 mm 0,0 mm nein 0,0 km/h 3,2 km/h 0,0 mm/h NW 28,850 klux 253,0 W/qm 2,0 nein - 12:20
12:2518,3 °C 89 % 1012,7 hPa 0,0 mm 0,0 mm nein 1,6 km/h 3,2 km/h 0,0 mm/h NW 38,427 klux 338,0 W/qm 2,6 nein - 12:25
12:3018,3 °C 89 % 1012,8 hPa 0,0 mm 0,0 mm nein 1,6 km/h 4,8 km/h 0,0 mm/h N 28,003 klux 247,0 W/qm 2,0 nein - 12:30
12:3518,9 °C 90 % 1012,7 hPa 0,0 mm 0,0 mm nein 3,2 km/h 8,0 km/h 0,0 mm/h WNW 35,056 klux 310,0 W/qm 2,4 nein - 12:35
12:4018,9 °C 90 % 1012,6 hPa 0,0 mm 0,0 mm nein 1,6 km/h 4,8 km/h 0,0 mm/h WNW 44,451 klux 394,0 W/qm 2,9 nein - 12:40
12:4518,9 °C 88 % 1012,6 hPa 0,0 mm 0,0 mm nein 3,2 km/h 6,4 km/h 0,0 mm/h WNW 34,788 klux 309,0 W/qm 2,5 nein - 12:45
12:5019,4 °C 89 % 1012,6 hPa 0,0 mm 0,0 mm nein 3,2 km/h 8,0 km/h 0,0 mm/h WNW 43,490 klux 387,0 W/qm 3,0 nein - 12:50
12:5519,4 °C 88 % 1012,5 hPa 0,0 mm 0,0 mm nein 3,2 km/h 6,4 km/h 0,0 mm/h W 36,577 klux 326,0 W/qm 2,6 nein - 12:55
13:0019,4 °C 88 % 1012,5 hPa 0,0 mm 0,2 mm nein 3,2 km/h 6,4 km/h 0,0 mm/h WSW 43,477 klux 388,0 W/qm 3,1 nein - 13:00
13:0520,0 °C 87 % 1012,4 hPa 0,0 mm 0,0 mm nein 4,8 km/h 8,0 km/h 0,0 mm/h W 49,925 klux 446,0 W/qm 3,5 nein - 13:05
13:1020,0 °C 86 % 1012,3 hPa 0,0 mm 0,0 mm nein 4,8 km/h 11,3 km/h 0,0 mm/h S 56,598 klux 506,0 W/qm 4,2 nein - 13:10
13:1520,0 °C 86 % 1012,2 hPa 0,0 mm 0,0 mm nein 4,8 km/h 8,0 km/h 0,0 mm/h S 71,330 klux 638,0 W/qm 6,4 nein - 13:15
13:2020,6 °C 84 % 1012,1 hPa 0,0 mm 0,0 mm nein 3,2 km/h 9,7 km/h 0,0 mm/h S 112,117 klux 1003,0 W/qm 6,6 ja - 13:20
13:2521,1 °C 83 % 1012,0 hPa 0,0 mm 0,0 mm nein 4,8 km/h 8,0 km/h 0,0 mm/h S 78,032 klux 698,0 W/qm 5,9 nein - 13:25
13:3021,1 °C 81 % 1011,9 hPa 0,0 mm 0,0 mm nein 3,2 km/h 11,3 km/h 0,0 mm/h W 43,728 klux 391,0 W/qm 4,7 nein - 13:30
13:3521,1 °C 81 % 1011,9 hPa 0,0 mm 0,0 mm nein 1,6 km/h 4,8 km/h 0,0 mm/h NNW 36,148 klux 323,0 W/qm 5,6 nein - 13:35
13:4021,7 °C 79 % 1011,8 hPa 0,0 mm 0,0 mm nein 4,8 km/h 8,0 km/h 0,0 mm/h WNW 112,692 klux 1006,0 W/qm 6,8 ja - 13:40
13:4521,7 °C 80 % 1011,7 hPa 0,0 mm 0,0 mm nein 3,2 km/h 6,4 km/h 0,0 mm/h SSW 114,065 klux 1017,0 W/qm 7,1 ja - 13:45
13:5022,2 °C 79 % 1011,6 hPa 0,0 mm 0,0 mm nein 3,2 km/h 6,4 km/h 0,0 mm/h SW 122,998 klux 1095,0 W/qm 6,8 ja - 13:50
13:5522,8 °C 79 % 1011,4 hPa 0,0 mm 0,0 mm nein 3,2 km/h 8,0 km/h 0,0 mm/h SSW 133,230 klux 1184,0 W/qm 6,6 ja - 13:55
UhrzeitTemperaturFeuchteLuftdruckNiederschlagEvapotranspirationNiederschlag?WindWindböenRegenrateWindrichtungHelligkeitSolarstrahlungUV-IndexSonne?Feinstaub 10µmUhrzeit
14:0022,8 °C 74 % 1011,4 hPa 0,0 mm 0,5 mm nein 4,8 km/h 9,7 km/h 0,0 mm/h NNO 109,145 klux 968,0 W/qm 6,1 ja - 14:00
14:0522,8 °C 73 % 1011,4 hPa 0,0 mm 0,0 mm nein 3,2 km/h 6,4 km/h 0,0 mm/h SO 52,097 klux 461,0 W/qm 4,6 nein - 14:05
14:1023,3 °C 75 % 1011,3 hPa 0,0 mm 0,0 mm nein 4,8 km/h 12,9 km/h 0,0 mm/h NW 148,866 klux 1314,0 W/qm 6,8 ja - 14:10
14:1523,3 °C 69 % 1011,4 hPa 0,0 mm 0,0 mm nein 6,4 km/h 12,9 km/h 0,0 mm/h W 140,525 klux 1237,0 W/qm 7,0 ja - 14:15
14:2022,2 °C 72 % 1011,5 hPa 0,0 mm 0,0 mm nein 8,0 km/h 12,9 km/h 0,0 mm/h NO 67,792 klux 595,0 W/qm 4,1 nein - 14:20
14:2522,2 °C 75 % 1011,6 hPa 0,0 mm 0,0 mm nein 3,2 km/h 6,4 km/h 0,0 mm/h N 45,261 klux 396,0 W/qm 4,2 nein - 14:25
14:3022,2 °C 76 % 1011,6 hPa 0,0 mm 0,0 mm nein 3,2 km/h 6,4 km/h 0,0 mm/h NNW 39,105 klux 341,0 W/qm 3,0 nein - 14:30
14:3522,2 °C 73 % 1011,5 hPa 0,0 mm 0,0 mm nein 4,8 km/h 12,9 km/h 0,0 mm/h N 33,028 klux 287,0 W/qm 2,3 nein - 14:35
14:4022,2 °C 73 % 1011,6 hPa 0,0 mm 0,0 mm nein 4,8 km/h 9,7 km/h 0,0 mm/h NNO 24,372 klux 211,0 W/qm 1,6 nein - 14:40
14:4522,2 °C 73 % 1011,5 hPa 0,0 mm 0,0 mm nein 6,4 km/h 12,9 km/h 0,0 mm/h N 31,307 klux 270,0 W/qm 2,0 nein - 14:45
14:5022,2 °C 71 % 1011,5 hPa 0,0 mm 0,0 mm nein 3,2 km/h 9,7 km/h 0,0 mm/h N 22,468 klux 193,0 W/qm 1,4 nein - 14:50
14:5522,2 °C 72 % 1011,5 hPa 0,0 mm 0,0 mm nein 3,2 km/h 6,4 km/h 0,0 mm/h N 20,457 klux 175,0 W/qm 1,2 nein - 14:55
15:0022,2 °C 74 % 1011,5 hPa 0,0 mm 0,3 mm nein 1,6 km/h 6,4 km/h 0,0 mm/h SSW 23,714 klux 202,0 W/qm 1,4 nein - 15:00
15:0522,2 °C 75 % 1011,4 hPa 0,0 mm 0,0 mm nein 3,2 km/h 4,8 km/h 0,0 mm/h SSW 34,784 klux 295,0 W/qm 2,1 nein - 15:05
15:1022,2 °C 73 % 1011,5 hPa 0,0 mm 0,0 mm nein 4,8 km/h 8,0 km/h 0,0 mm/h WNW 21,438 klux 181,0 W/qm 1,1 nein - 15:10
15:1522,2 °C 73 % 1011,3 hPa 0,0 mm 0,0 mm nein 1,6 km/h 6,4 km/h 0,0 mm/h SW 42,122 klux 354,0 W/qm 2,7 nein - 15:15
15:2022,2 °C 72 % 1011,4 hPa 0,0 mm 0,0 mm nein 4,8 km/h 8,0 km/h 0,0 mm/h WNW 26,300 klux 220,0 W/qm 1,6 nein - 15:20
15:2522,2 °C 71 % 1011,4 hPa 0,0 mm 0,0 mm nein 3,2 km/h 4,8 km/h 0,0 mm/h W 20,420 klux 170,0 W/qm 1,2 nein - 15:25
15:3022,2 °C 72 % 1011,5 hPa 0,0 mm 0,0 mm nein 3,2 km/h 4,8 km/h 0,0 mm/h NW 18,467 klux 153,0 W/qm 1,1 nein - 15:30
15:3522,2 °C 73 % 1011,4 hPa 0,0 mm 0,0 mm nein 3,2 km/h 6,4 km/h 0,0 mm/h S 28,988 klux 239,0 W/qm 1,6 nein - 15:35
15:4022,2 °C 74 % 1011,5 hPa 0,0 mm 0,0 mm nein 3,2 km/h 4,8 km/h 0,0 mm/h S 33,643 klux 276,0 W/qm 1,9 nein - 15:40
15:4522,2 °C 74 % 1011,4 hPa 0,0 mm 0,0 mm nein 3,2 km/h 4,8 km/h 0,0 mm/h W 51,453 klux 420,0 W/qm 2,7 nein - 15:45
15:5022,8 °C 69 % 1011,4 hPa 0,0 mm 0,0 mm nein 3,2 km/h 8,0 km/h 0,0 mm/h NW 58,486 klux 475,0 W/qm 3,0 nein - 15:50
15:5522,8 °C 70 % 1011,3 hPa 0,0 mm 0,0 mm nein 8,0 km/h 16,1 km/h 0,0 mm/h W 42,326 klux 342,0 W/qm 2,3 nein - 15:55
UhrzeitTemperaturFeuchteLuftdruckNiederschlagEvapotranspirationNiederschlag?WindWindböenRegenrateWindrichtungHelligkeitSolarstrahlungUV-IndexSonne?Feinstaub 10µmUhrzeit
16:0022,8 °C 69 % 1011,4 hPa 0,0 mm 0,2 mm nein 6,4 km/h 14,5 km/h 0,0 mm/h W 40,180 klux 323,0 W/qm 2,4 nein - 16:00
16:0522,8 °C 70 % 1011,3 hPa 0,0 mm 0,0 mm nein 6,4 km/h 14,5 km/h 0,0 mm/h W 24,258 klux 194,0 W/qm 1,4 nein - 16:05
16:1022,8 °C 70 % 1011,3 hPa 0,0 mm 0,0 mm nein 6,4 km/h 17,7 km/h 0,0 mm/h W 25,893 klux 206,0 W/qm 1,3 nein - 16:10
16:1522,8 °C 68 % 1011,4 hPa 0,0 mm 0,0 mm nein 8,0 km/h 16,1 km/h 0,0 mm/h W 38,285 klux 303,0 W/qm 1,8 nein - 16:15
16:2022,8 °C 72 % 1011,2 hPa 0,0 mm 0,0 mm nein 6,4 km/h 14,5 km/h 0,0 mm/h SSW 53,221 klux 419,0 W/qm 2,6 nein - 16:20
16:2522,8 °C 72 % 1011,3 hPa 0,0 mm 0,0 mm nein 8,0 km/h 14,5 km/h 0,0 mm/h W 71,888 klux 563,0 W/qm 2,8 ja - 16:25
Gesamt: 19,5 °C 87 % 1011,6 hPa 0,0 mm 2,0 mm nein 4,4 km/h 9,4 km/h 0,0 mm/h 0 22,488 klux 182,1 W/qm 1,1 ja nan µg/m³

Insgesamt 198 Zeilen mal 15 Spalten = 2970 Werte werden angezeigt.

www.wetter-rosstal.de   •   www.wetter-franken.de   •   www.lightningmaps.org   •   Start   •   Kontakt / Datenschutz   •   PC-Kümmerer